createdAt,value
2023-05-19T00:01:05.595Z,7.10
2023-05-19T00:03:37.372Z,7.10
2023-05-19T00:06:08.773Z,7.00
2023-05-19T00:08:42.194Z,7.10
2023-05-19T00:11:11.444Z,7.10
2023-05-19T00:13:40.986Z,7.10
2023-05-19T00:16:12.360Z,7.10
2023-05-19T00:18:42.054Z,7.00
2023-05-19T00:21:10.791Z,6.90
2023-05-19T00:23:41.497Z,6.90
2023-05-19T00:26:10.660Z,6.90
2023-05-19T00:28:40.732Z,6.80
2023-05-19T00:31:10.102Z,6.80
2023-05-19T00:33:38.664Z,6.80
2023-05-19T00:36:08.170Z,6.80
2023-05-19T00:38:37.912Z,6.80
2023-05-19T00:41:08.544Z,6.90
2023-05-19T00:43:37.023Z,6.90
2023-05-19T00:46:05.573Z,6.90
2023-05-19T00:48:34.797Z,7.00
2023-05-19T00:51:06.881Z,7.00
2023-05-19T00:53:36.305Z,7.00
2023-05-19T00:56:06.508Z,6.90
2023-05-19T00:58:39.472Z,6.80
2023-05-19T01:01:09.201Z,6.70
2023-05-19T01:03:38.279Z,6.60
2023-05-19T01:06:07.417Z,6.50
2023-05-19T01:08:38.397Z,6.40
2023-05-19T01:11:08.673Z,6.30
2023-05-19T01:13:41.826Z,6.30
2023-05-19T01:16:15.307Z,6.30
2023-05-19T01:18:56.558Z,6.30
2023-05-19T01:21:49.872Z,6.30
2023-05-19T01:24:35.857Z,6.30
2023-05-19T01:27:42.739Z,6.40
2023-05-19T01:30:26.965Z,6.30
2023-05-19T01:32:59.749Z,6.30
2023-05-19T01:35:29.513Z,6.20
2023-05-19T01:38:01.409Z,6.20
2023-05-19T01:40:31.346Z,6.20
2023-05-19T01:43:04.544Z,6.20
2023-05-19T01:45:36.848Z,6.10
2023-05-19T01:48:09.248Z,6.10
2023-05-19T01:50:43.671Z,6.00
2023-05-19T01:53:12.872Z,5.80
2023-05-19T01:55:47.035Z,5.80
2023-05-19T01:58:22.085Z,5.70
2023-05-19T02:00:58.347Z,5.80
2023-05-19T02:03:38.803Z,5.70
2023-05-19T02:06:19.776Z,5.70
2023-05-19T02:08:59.773Z,5.70
2023-05-19T02:11:37.619Z,5.70
2023-05-19T02:14:14.339Z,5.70
2023-05-19T02:16:48.910Z,5.70
2023-05-19T02:19:26.597Z,5.60
2023-05-19T02:21:59.937Z,5.60
2023-05-19T02:24:29.108Z,5.60
2023-05-19T02:26:59.071Z,5.60
2023-05-19T02:29:28.281Z,5.50
2023-05-19T02:32:00.957Z,5.50
2023-05-19T02:34:31.852Z,5.50
2023-05-19T02:37:02.213Z,5.40
2023-05-19T02:39:35.319Z,5.40
2023-05-19T02:42:04.347Z,5.40
2023-05-19T02:44:33.223Z,5.30
2023-05-19T02:47:02.953Z,5.30
2023-05-19T02:49:36.011Z,5.30
2023-05-19T02:52:05.230Z,5.20
2023-05-19T02:54:35.669Z,5.20
2023-05-19T02:57:04.340Z,5.20
2023-05-19T02:59:33.759Z,5.20
2023-05-19T03:02:04.869Z,5.20
2023-05-19T03:04:33.429Z,5.20
2023-05-19T03:07:02.175Z,5.10
2023-05-19T03:09:34.513Z,5.10
2023-05-19T03:12:04.880Z,5.10
2023-05-19T03:14:35.431Z,5.10
2023-05-19T03:17:07.867Z,5.10
2023-05-19T03:19:38.142Z,5.10
2023-05-19T03:22:10.325Z,5.10
2023-05-19T03:24:40.600Z,5.10
2023-05-19T03:27:11.780Z,5.10
2023-05-19T03:29:42.065Z,5.10
2023-05-19T03:32:13.374Z,5.00
2023-05-19T03:34:42.430Z,5.00
2023-05-19T03:37:12.965Z,5.00
2023-05-19T03:39:43.796Z,5.10
2023-05-19T03:42:13.902Z,5.00
2023-05-19T03:44:45.053Z,5.00
2023-05-19T03:47:16.936Z,5.00
2023-05-19T03:50:20.242Z,5.00
2023-05-19T03:52:59.313Z,5.00
2023-05-19T03:55:33.145Z,5.10
2023-05-19T03:58:03.174Z,5.00
2023-05-19T04:00:32.521Z,5.00
2023-05-19T04:03:05.200Z,5.00
2023-05-19T04:05:35.424Z,5.00
2023-05-19T04:08:05.106Z,5.00
2023-05-19T04:10:33.808Z,5.00
2023-05-19T04:13:02.191Z,5.00
2023-05-19T04:15:30.826Z,5.00
2023-05-19T04:18:00.835Z,5.00
2023-05-19T04:20:31.119Z,5.00
2023-05-19T04:22:59.818Z,5.00
2023-05-19T04:25:29.547Z,5.00
2023-05-19T04:27:59.103Z,5.00
2023-05-19T04:30:28.643Z,5.10
2023-05-19T04:32:59.265Z,5.10
2023-05-19T04:35:28.538Z,5.10
2023-05-19T04:37:59.237Z,5.20
2023-05-19T04:40:32.487Z,5.20
2023-05-19T04:43:02.090Z,5.30
2023-05-19T04:45:33.129Z,5.30
2023-05-19T04:48:03.904Z,5.30
2023-05-19T04:50:33.246Z,5.30
2023-05-19T04:53:04.239Z,5.30
2023-05-19T04:55:32.997Z,5.30
2023-05-19T04:58:02.101Z,5.40
2023-05-19T05:00:31.567Z,5.50
2023-05-19T05:03:05.924Z,5.50
2023-05-19T05:05:36.371Z,5.60
2023-05-19T05:08:08.935Z,5.60
2023-05-19T05:10:42.714Z,5.70
2023-05-19T05:13:12.048Z,5.80
2023-05-19T05:15:41.877Z,5.90
2023-05-19T05:18:11.771Z,6.00
2023-05-19T05:20:45.157Z,6.10
2023-05-19T05:23:16.941Z,6.20
2023-05-19T05:25:49.920Z,6.30
2023-05-19T05:28:19.368Z,6.50
2023-05-19T05:30:50.537Z,6.60
2023-05-19T05:33:22.401Z,6.70
2023-05-19T05:35:51.503Z,6.80
2023-05-19T05:38:22.789Z,6.90
2023-05-19T05:40:51.872Z,7.00
2023-05-19T05:43:22.870Z,7.10
2023-05-19T05:45:57.813Z,7.20
2023-05-19T05:48:27.148Z,7.40
2023-05-19T05:51:00.589Z,7.50
2023-05-19T05:53:39.044Z,7.70
2023-05-19T05:56:09.227Z,7.70
2023-05-19T05:58:45.405Z,7.80
2023-05-19T06:01:17.012Z,7.90
2023-05-19T06:03:47.246Z,8.00
2023-05-19T06:06:21.537Z,8.20
2023-05-19T06:08:55.789Z,8.30
2023-05-19T06:11:27.289Z,8.40
2023-05-19T06:13:58.389Z,8.50
2023-05-19T06:16:51.012Z,8.70
2023-05-19T06:19:21.334Z,8.80
2023-05-19T06:21:51.293Z,8.90
2023-05-19T06:24:22.502Z,9.00
2023-05-19T06:26:51.297Z,9.10
2023-05-19T06:29:20.972Z,9.20
2023-05-19T06:31:51.491Z,9.30
2023-05-19T06:34:21.412Z,9.40
2023-05-19T06:36:52.485Z,9.50
2023-05-19T06:39:24.895Z,9.60
2023-05-19T06:41:53.391Z,9.70
2023-05-19T06:44:41.491Z,9.80
2023-05-19T06:47:13.881Z,9.90
2023-05-19T06:49:45.375Z,10.00
2023-05-19T06:52:15.869Z,10.20
2023-05-19T06:54:48.792Z,10.30
2023-05-19T06:57:18.027Z,10.50
2023-05-19T06:59:49.794Z,10.60
2023-05-19T07:02:21.011Z,10.70
2023-05-19T07:04:51.376Z,10.80
2023-05-19T07:07:20.468Z,11.00
2023-05-19T07:09:52.106Z,11.10
2023-05-19T07:12:21.453Z,11.20
2023-05-19T07:14:53.354Z,11.30
2023-05-19T07:17:23.201Z,11.30
2023-05-19T07:19:52.098Z,11.50
2023-05-19T07:22:24.205Z,11.50
2023-05-19T07:24:54.334Z,11.60
2023-05-19T07:27:23.471Z,11.70
2023-05-19T07:29:52.275Z,11.80
2023-05-19T07:32:22.574Z,11.90
2023-05-19T07:34:52.530Z,12.10
2023-05-19T07:37:20.846Z,12.30
2023-05-19T07:39:49.678Z,12.40
2023-05-19T07:42:19.797Z,12.50
2023-05-19T07:44:49.153Z,12.50
2023-05-19T07:47:17.754Z,12.60
2023-05-19T07:49:48.156Z,12.70
2023-05-19T07:52:18.828Z,12.80
2023-05-19T07:54:47.822Z,12.90
2023-05-19T07:57:19.250Z,12.90
2023-05-19T07:59:49.916Z,13.00
2023-05-19T08:02:18.804Z,13.10
2023-05-19T08:04:48.885Z,13.10
2023-05-19T08:07:20.149Z,13.30
2023-05-19T08:09:49.070Z,13.40
2023-05-19T08:12:20.045Z,13.40
2023-05-19T08:14:50.383Z,13.50
2023-05-19T08:17:20.185Z,13.60
2023-05-19T08:19:48.938Z,13.70
2023-05-19T08:22:17.338Z,13.70
2023-05-19T08:24:45.943Z,13.90
2023-05-19T08:27:18.152Z,14.10
2023-05-19T08:29:47.108Z,14.10
2023-05-19T08:32:17.501Z,14.20
2023-05-19T08:34:47.311Z,14.30
2023-05-19T08:37:15.918Z,14.40
2023-05-19T08:39:47.428Z,14.40
2023-05-19T08:42:16.320Z,14.50
2023-05-19T08:44:45.184Z,14.60
2023-05-19T08:47:15.484Z,14.70
2023-05-19T08:49:53.621Z,14.80
2023-05-19T08:52:33.372Z,14.90
2023-05-19T08:55:06.842Z,15.00
2023-05-19T08:57:37.533Z,15.00
2023-05-19T09:00:09.560Z,15.20
2023-05-19T09:02:50.427Z,15.40
2023-05-19T09:05:30.652Z,15.50
2023-05-19T09:07:59.162Z,15.50
2023-05-19T09:10:29.215Z,15.60
2023-05-19T09:12:58.059Z,15.60
2023-05-19T09:15:28.640Z,15.70
2023-05-19T09:18:08.453Z,15.80
2023-05-19T09:20:41.762Z,15.90
2023-05-19T09:23:16.116Z,16.00
2023-05-19T09:25:52.014Z,16.10
2023-05-19T09:28:28.067Z,16.20
2023-05-19T09:31:04.664Z,16.30
2023-05-19T09:33:36.506Z,16.30
2023-05-19T09:36:08.805Z,16.30
2023-05-19T09:38:38.953Z,16.40
2023-05-19T09:41:09.779Z,16.40
2023-05-19T09:43:40.217Z,16.60
2023-05-19T09:46:13.764Z,16.70
2023-05-19T09:48:43.850Z,16.90
2023-05-19T09:51:13.764Z,17.00
2023-05-19T09:53:45.084Z,17.10
2023-05-19T09:56:16.275Z,17.30
2023-05-19T09:58:47.018Z,17.30
2023-05-19T10:01:16.629Z,17.40
2023-05-19T10:03:46.039Z,17.50
2023-05-19T10:06:17.507Z,17.60
2023-05-19T10:08:46.288Z,17.60
2023-05-19T10:11:16.378Z,17.60
2023-05-19T10:13:46.820Z,17.60
2023-05-19T10:16:18.032Z,17.80
2023-05-19T10:18:48.503Z,18.00
2023-05-19T10:21:19.110Z,18.20
2023-05-19T10:23:47.599Z,18.20
2023-05-19T10:26:17.337Z,18.30
2023-05-19T10:28:46.523Z,18.50
2023-05-19T10:31:21.579Z,18.70
2023-05-19T10:34:15.358Z,18.90
2023-05-19T10:36:51.838Z,19.20
2023-05-19T10:39:28.950Z,19.40
2023-05-19T10:42:06.282Z,19.50
2023-05-19T10:44:59.331Z,19.60
2023-05-19T10:47:28.453Z,19.80
2023-05-19T10:49:57.202Z,20.10
2023-05-19T10:52:29.719Z,20.30
2023-05-19T10:54:58.510Z,20.60
2023-05-19T10:57:28.793Z,20.90
2023-05-19T10:59:59.918Z,21.00
2023-05-19T11:02:43.091Z,21.10
2023-05-19T11:05:15.081Z,21.10
2023-05-19T11:08:02.192Z,20.90
2023-05-19T11:10:30.912Z,20.90
2023-05-19T11:13:00.555Z,20.90
2023-05-19T11:15:29.925Z,21.10
2023-05-19T11:17:59.014Z,21.40
2023-05-19T11:20:31.416Z,21.50
2023-05-19T11:23:08.870Z,21.70
2023-05-19T11:26:11.292Z,22.00
2023-05-19T11:28:40.768Z,22.30
2023-05-19T11:31:12.292Z,22.50
2023-05-19T11:33:41.553Z,22.70
2023-05-19T11:36:12.951Z,22.90
2023-05-19T11:38:46.605Z,23.10
2023-05-19T11:41:19.533Z,23.20
2023-05-19T11:43:49.709Z,23.50
2023-05-19T11:46:19.272Z,23.40
2023-05-19T11:48:48.693Z,23.50
2023-05-19T11:51:19.296Z,23.70
2023-05-19T11:53:51.091Z,23.90
2023-05-19T11:56:20.445Z,24.10
2023-05-19T11:58:49.168Z,24.40
2023-05-19T12:01:18.258Z,24.50
2023-05-19T12:03:47.572Z,24.40
2023-05-19T12:06:17.587Z,24.50
2023-05-19T12:08:48.626Z,24.80
2023-05-19T12:11:18.195Z,25.00
2023-05-19T12:13:48.420Z,25.00
2023-05-19T12:16:17.004Z,25.30
2023-05-19T12:18:45.547Z,25.40
2023-05-19T12:21:14.154Z,25.30
2023-05-19T12:23:43.810Z,25.20
2023-05-19T12:26:14.520Z,25.20
2023-05-19T12:28:43.232Z,25.30
2023-05-19T12:31:13.097Z,25.50
2023-05-19T12:33:42.181Z,25.50
2023-05-19T12:36:13.907Z,25.80
2023-05-19T12:38:42.422Z,26.00
2023-05-19T12:41:16.909Z,25.80
2023-05-19T12:43:45.577Z,25.20
2023-05-19T12:46:16.602Z,25.60
2023-05-19T12:48:45.868Z,26.00
2023-05-19T12:51:17.907Z,26.60
2023-05-19T12:53:50.401Z,26.50
2023-05-19T12:56:21.346Z,26.20
2023-05-19T12:58:56.276Z,26.10
2023-05-19T13:01:26.974Z,26.30
2023-05-19T13:03:55.760Z,26.70
2023-05-19T13:06:24.771Z,26.80
2023-05-19T13:08:53.685Z,26.50
2023-05-19T13:11:23.460Z,26.40
2023-05-19T13:13:52.785Z,26.50
2023-05-19T13:16:22.618Z,26.90
2023-05-19T13:18:51.571Z,27.40
2023-05-19T13:21:20.249Z,27.90
2023-05-19T13:23:50.212Z,28.30
2023-05-19T13:26:19.383Z,28.60
2023-05-19T13:28:52.336Z,28.50
2023-05-19T13:31:23.260Z,28.10
2023-05-19T13:33:51.599Z,27.60
2023-05-19T13:36:21.720Z,27.70
2023-05-19T13:38:52.501Z,27.80
2023-05-19T13:41:26.416Z,28.10
2023-05-19T13:43:58.455Z,28.40
2023-05-19T13:49:16.313Z,28.40
2023-05-19T13:51:32.996Z,28.30
2023-05-19T13:51:45.162Z,28.60
2023-05-19T13:54:13.719Z,28.20
2023-05-19T13:56:43.841Z,28.30
2023-05-19T13:59:13.794Z,28.10
2023-05-19T14:01:43.831Z,27.20
2023-05-19T14:04:14.325Z,27.10
2023-05-19T14:06:44.032Z,27.40
2023-05-19T14:09:16.173Z,27.60
2023-05-19T14:11:46.339Z,27.10
2023-05-19T14:14:16.250Z,26.70
2023-05-19T14:16:44.976Z,26.20
2023-05-19T14:19:14.139Z,25.60
2023-05-19T14:21:45.735Z,25.30
2023-05-19T14:24:14.642Z,25.10
2023-05-19T14:26:45.430Z,24.80
2023-05-19T14:29:16.137Z,24.80
2023-05-19T14:31:45.255Z,25.30
2023-05-19T14:34:17.961Z,25.40
2023-05-19T14:36:48.754Z,25.50
2023-05-19T14:39:17.748Z,25.90
2023-05-19T14:41:46.428Z,26.00
2023-05-19T14:44:16.578Z,25.70
2023-05-19T14:46:45.072Z,25.40
2023-05-19T14:49:13.667Z,25.10
2023-05-19T14:51:43.018Z,24.60
2023-05-19T14:54:12.054Z,24.30
2023-05-19T14:56:41.362Z,23.90
2023-05-19T14:59:09.696Z,23.80
2023-05-19T15:01:41.206Z,23.60
2023-05-19T15:04:10.937Z,23.50
2023-05-19T15:06:41.044Z,23.50
2023-05-19T15:09:12.154Z,23.50
2023-05-19T15:11:43.658Z,23.50
2023-05-19T15:14:12.092Z,23.40
2023-05-19T15:16:42.316Z,23.20
2023-05-19T15:19:11.252Z,23.10
2023-05-19T15:21:39.909Z,23.10
2023-05-19T15:24:08.977Z,23.30
2023-05-19T15:26:38.020Z,23.40
2023-05-19T15:29:06.905Z,23.50
2023-05-19T15:31:37.992Z,23.60
2023-05-19T15:34:08.411Z,23.70
2023-05-19T15:36:36.885Z,23.70
2023-05-19T15:39:06.732Z,23.70
2023-05-19T15:41:35.214Z,23.80
2023-05-19T15:44:04.170Z,23.40
2023-05-19T15:46:33.671Z,23.10
2023-05-19T15:49:02.189Z,23.00
2023-05-19T15:51:33.028Z,22.90
2023-05-19T15:54:01.655Z,22.70
2023-05-19T15:56:31.332Z,22.60
2023-05-19T15:59:00.101Z,22.50
2023-05-19T16:01:30.563Z,22.40
2023-05-19T16:03:59.444Z,22.20
2023-05-19T16:06:28.569Z,22.10
2023-05-19T16:09:00.794Z,22.20
2023-05-19T16:11:29.779Z,22.20
2023-05-19T16:13:58.803Z,22.10
2023-05-19T16:16:27.096Z,22.20
2023-05-19T16:18:55.782Z,22.10
2023-05-19T16:21:24.229Z,22.10
2023-05-19T16:23:53.345Z,22.10
2023-05-19T16:26:23.627Z,22.00
2023-05-19T16:28:52.300Z,21.90
2023-05-19T16:31:21.031Z,21.80
2023-05-19T16:33:50.126Z,21.80
2023-05-19T16:36:18.381Z,21.70
2023-05-19T16:38:46.625Z,21.50
2023-05-19T16:41:15.448Z,21.50
2023-05-19T16:43:46.314Z,21.30
2023-05-19T16:46:17.756Z,21.20
2023-05-19T16:48:46.185Z,21.20
2023-05-19T16:51:16.562Z,21.10
2023-05-19T16:53:45.250Z,21.10
2023-05-19T16:56:14.702Z,21.00
2023-05-19T16:58:43.494Z,21.00
2023-05-19T17:01:15.723Z,20.90
2023-05-19T17:03:44.538Z,21.00
2023-05-19T17:06:15.318Z,20.90
2023-05-19T17:08:43.915Z,20.90
2023-05-19T17:11:13.754Z,20.90
2023-05-19T17:13:44.288Z,20.80
2023-05-19T17:16:14.704Z,20.80
2023-05-19T17:18:45.365Z,20.80
2023-05-19T17:21:16.305Z,20.70
2023-05-19T17:23:45.031Z,20.60
2023-05-19T17:26:15.933Z,20.60
2023-05-19T17:28:44.546Z,20.50
2023-05-19T17:31:17.940Z,20.40
2023-05-19T17:33:46.318Z,20.40
2023-05-19T17:36:15.130Z,20.30
2023-05-19T17:38:43.588Z,20.20
2023-05-19T17:41:15.418Z,20.20
2023-05-19T17:43:44.659Z,20.10
2023-05-19T17:46:14.701Z,20.00
2023-05-19T17:48:43.528Z,19.90
2023-05-19T17:51:12.176Z,19.80
2023-05-19T17:53:41.893Z,19.80
2023-05-19T17:56:13.751Z,19.60
2023-05-19T17:58:46.605Z,19.50
2023-05-19T18:01:17.915Z,19.40
2023-05-19T18:03:49.916Z,19.30
2023-05-19T18:06:20.154Z,19.30
2023-05-19T18:08:54.294Z,19.20
2023-05-19T18:11:25.194Z,19.10
2023-05-19T18:13:54.091Z,19.00
2023-05-19T18:16:24.231Z,19.00
2023-05-19T18:18:53.028Z,18.90
2023-05-19T18:21:21.832Z,18.90
2023-05-19T18:23:52.495Z,18.80
2023-05-19T18:26:23.604Z,18.70
2023-05-19T18:28:51.887Z,18.60
2023-05-19T18:31:22.165Z,18.50
2023-05-19T18:33:51.974Z,18.50
2023-05-19T18:36:26.271Z,18.40
2023-05-19T18:38:55.178Z,18.40
2023-05-19T18:41:25.456Z,18.30
2023-05-19T18:43:54.412Z,18.30
2023-05-19T18:46:23.170Z,18.20
2023-05-19T18:48:53.034Z,18.20
2023-05-19T18:51:22.028Z,18.10
2023-05-19T18:53:51.190Z,18.10
2023-05-19T18:56:26.409Z,18.00
2023-05-19T18:58:55.867Z,17.90
2023-05-19T19:01:24.532Z,17.80
2023-05-19T19:03:54.397Z,17.70
2023-05-19T19:06:24.537Z,17.60
2023-05-19T19:08:53.243Z,17.50
2023-05-19T19:11:22.704Z,17.50
2023-05-19T19:13:54.757Z,17.30
2023-05-19T19:16:23.588Z,17.20
2023-05-19T19:18:53.547Z,17.10
2023-05-19T19:21:24.262Z,17.00
2023-05-19T19:23:54.585Z,16.90
2023-05-19T19:26:25.035Z,16.80
2023-05-19T19:28:54.947Z,16.60
2023-05-19T19:31:23.642Z,16.50
2023-05-19T19:33:58.810Z,16.30
2023-05-19T19:36:27.697Z,16.20
2023-05-19T19:38:56.336Z,16.20
2023-05-19T19:41:25.566Z,16.10
2023-05-19T19:43:55.026Z,16.10
2023-05-19T19:46:23.618Z,16.10
2023-05-19T19:48:58.057Z,16.10
2023-05-19T19:51:27.661Z,16.10
2023-05-19T19:53:56.586Z,16.00
2023-05-19T19:56:27.751Z,16.00
2023-05-19T19:58:59.057Z,15.90
2023-05-19T20:01:29.656Z,15.80
2023-05-19T20:04:00.962Z,15.70
2023-05-19T20:06:31.088Z,15.60
2023-05-19T20:08:59.711Z,15.50
2023-05-19T20:11:28.331Z,15.40
2023-05-19T20:13:57.621Z,15.30
2023-05-19T20:16:26.533Z,15.30
2023-05-19T20:18:56.377Z,15.20
2023-05-19T20:21:26.596Z,15.20
2023-05-19T20:23:55.437Z,15.10
2023-05-19T20:26:24.765Z,15.00
2023-05-19T20:28:53.276Z,14.80
2023-05-19T20:31:23.573Z,14.80
2023-05-19T20:33:52.057Z,14.70
2023-05-19T20:36:21.237Z,14.80
2023-05-19T20:38:51.789Z,14.80
2023-05-19T20:41:22.653Z,14.80
2023-05-19T20:43:51.481Z,14.80
2023-05-19T20:46:20.407Z,14.90
2023-05-19T20:48:49.284Z,14.90
2023-05-19T20:51:18.853Z,14.90
2023-05-19T20:53:47.664Z,15.00
2023-05-19T20:56:17.792Z,15.00
2023-05-19T20:58:46.291Z,15.00
2023-05-19T21:01:14.695Z,15.00
2023-05-19T21:03:43.341Z,15.00
2023-05-19T21:06:12.448Z,15.10
2023-05-19T21:08:43.677Z,15.00
2023-05-19T21:11:12.652Z,15.00
2023-05-19T21:13:43.610Z,15.00
2023-05-19T21:16:12.107Z,15.00
2023-05-19T21:18:41.141Z,14.90
2023-05-19T21:21:09.789Z,14.90
2023-05-19T21:23:38.453Z,14.90
2023-05-19T21:26:08.368Z,14.80
2023-05-19T21:28:37.677Z,14.80
2023-05-19T21:31:07.938Z,14.70
2023-05-19T21:33:36.858Z,14.70
2023-05-19T21:36:06.616Z,14.70
2023-05-19T21:38:35.950Z,14.80
2023-05-19T21:41:04.599Z,14.80
2023-05-19T21:43:33.336Z,14.80
2023-05-19T21:46:04.950Z,14.90
2023-05-19T21:48:38.497Z,15.00
2023-05-19T21:51:09.507Z,15.10
2023-05-19T21:53:38.999Z,15.10
2023-05-19T21:56:07.552Z,15.20
2023-05-19T21:58:39.270Z,15.20
2023-05-19T22:01:08.954Z,15.30
2023-05-19T22:03:39.853Z,15.30
2023-05-19T22:06:10.147Z,15.30
2023-05-19T22:08:38.888Z,15.30
2023-05-19T22:11:08.988Z,15.30
2023-05-19T22:13:41.232Z,15.40
2023-05-19T22:16:10.244Z,15.50
2023-05-19T22:18:40.467Z,15.50
2023-05-19T22:21:13.316Z,15.60
2023-05-19T22:23:43.371Z,15.50
2023-05-19T22:26:12.446Z,15.60
2023-05-19T22:28:41.051Z,15.60
2023-05-19T22:31:10.933Z,15.70
2023-05-19T22:33:40.984Z,15.70
2023-05-19T22:36:11.102Z,15.60
2023-05-19T22:38:40.382Z,15.60
2023-05-19T22:41:08.832Z,15.60
2023-05-19T22:43:37.586Z,15.60
2023-05-19T22:46:06.952Z,15.60
2023-05-19T22:48:37.916Z,15.60
2023-05-19T22:51:08.275Z,15.50
2023-05-19T22:53:37.053Z,15.50
2023-05-19T22:56:08.378Z,15.50
2023-05-19T22:58:37.472Z,15.40
2023-05-19T23:01:09.474Z,15.40
2023-05-19T23:03:38.173Z,15.30
2023-05-19T23:06:09.436Z,15.20
2023-05-19T23:08:38.074Z,15.20
2023-05-19T23:11:06.602Z,15.20
2023-05-19T23:13:35.321Z,15.20
2023-05-19T23:16:04.941Z,15.10
2023-05-19T23:18:34.110Z,15.10
2023-05-19T23:21:04.636Z,15.10
2023-05-19T23:23:35.949Z,15.10
2023-05-19T23:26:05.918Z,15.00
2023-05-19T23:28:36.269Z,15.00
2023-05-19T23:31:07.027Z,15.00
2023-05-19T23:33:35.896Z,15.00
2023-05-19T23:36:09.086Z,14.90
2023-05-19T23:38:40.663Z,14.90
2023-05-19T23:41:09.177Z,14.90
2023-05-19T23:43:38.052Z,14.90
2023-05-19T23:46:06.777Z,14.90
2023-05-19T23:48:38.304Z,14.90
2023-05-19T23:51:07.580Z,14.80
2023-05-19T23:53:36.126Z,14.80
2023-05-19T23:56:12.064Z,14.80
2023-05-19T23:58:41.083Z,14.80
